sensor_id;sensor_type;location;lat;lon;timestamp;pressure;altitude;pressure_sealevel;temperature;humidity
12178;BME280;6152;48.728;9.256;2022-11-09T00:01:24;96759.16;;;9.57;100.00
12178;BME280;6152;48.728;9.256;2022-11-09T00:03:59;96757.50;;;9.56;100.00
12178;BME280;6152;48.728;9.256;2022-11-09T00:06:27;96749.91;;;9.53;100.00
12178;BME280;6152;48.728;9.256;2022-11-09T00:08:54;96753.59;;;9.49;100.00
12178;BME280;6152;48.728;9.256;2022-11-09T00:11:20;96751.00;;;9.49;100.00
12178;BME280;6152;48.728;9.256;2022-11-09T00:13:47;96752.03;;;9.47;100.00
12178;BME280;6152;48.728;9.256;2022-11-09T00:16:17;96752.03;;;9.47;100.00
12178;BME280;6152;48.728;9.256;2022-11-09T00:18:44;96746.72;;;9.48;100.00
12178;BME280;6152;48.728;9.256;2022-11-09T00:21:18;96738.94;;;9.48;100.00
12178;BME280;6152;48.728;9.256;2022-11-09T00:23:45;96744.97;;;9.49;100.00
12178;BME280;6152;48.728;9.256;2022-11-09T00:26:13;96744.91;;;9.50;100.00
12178;BME280;6152;48.728;9.256;2022-11-09T00:28:39;96740.44;;;9.52;100.00
12178;BME280;6152;48.728;9.256;2022-11-09T00:31:09;96744.69;;;9.53;100.00
12178;BME280;6152;48.728;9.256;2022-11-09T00:33:36;96742.00;;;9.55;100.00
12178;BME280;6152;48.728;9.256;2022-11-09T00:36:04;96743.59;;;9.57;100.00
12178;BME280;6152;48.728;9.256;2022-11-09T00:38:36;96742.63;;;9.58;100.00
12178;BME280;6152;48.728;9.256;2022-11-09T00:41:05;96740.16;;;9.57;100.00
12178;BME280;6152;48.728;9.256;2022-11-09T00:43:31;96730.59;;;9.57;100.00
12178;BME280;6152;48.728;9.256;2022-11-09T00:45:58;96738.38;;;9.57;100.00
12178;BME280;6152;48.728;9.256;2022-11-09T00:48:24;96735.88;;;9.56;100.00
12178;BME280;6152;48.728;9.256;2022-11-09T00:50:54;96731.59;;;9.55;100.00
12178;BME280;6152;48.728;9.256;2022-11-09T00:53:21;96731.72;;;9.53;100.00
12178;BME280;6152;48.728;9.256;2022-11-09T00:55:55;96736.91;;;9.53;100.00
12178;BME280;6152;48.728;9.256;2022-11-09T00:58:23;96731.00;;;9.51;100.00
12178;BME280;6152;48.728;9.256;2022-11-09T01:00:50;96740.44;;;9.52;100.00
12178;BME280;6152;48.728;9.256;2022-11-09T01:03:16;96737.84;;;9.52;100.00
12178;BME280;6152;48.728;9.256;2022-11-09T01:05:42;96737.09;;;9.50;100.00
12178;BME280;6152;48.728;9.256;2022-11-09T01:08:09;96733.47;;;9.53;100.00
12178;BME280;6152;48.728;9.256;2022-11-09T01:10:38;96730.03;;;9.52;100.00
12178;BME280;6152;48.728;9.256;2022-11-09T01:13:04;96731.72;;;9.53;100.00
12178;BME280;6152;48.728;9.256;2022-11-09T01:15:30;96743.78;;;9.54;100.00
12178;BME280;6152;48.728;9.256;2022-11-09T01:17:57;96730.03;;;9.52;100.00
12178;BME280;6152;48.728;9.256;2022-11-09T01:20:23;96745.81;;;9.49;100.00
12178;BME280;6152;48.728;9.256;2022-11-09T01:22:49;96743.34;;;9.48;100.00
12178;BME280;6152;48.728;9.256;2022-11-09T01:25:15;96737.28;;;9.47;100.00
12178;BME280;6152;48.728;9.256;2022-11-09T01:27:42;96738.28;;;9.45;100.00
12178;BME280;6152;48.728;9.256;2022-11-09T01:30:08;96744.13;;;9.48;100.00
12178;BME280;6152;48.728;9.256;2022-11-09T01:32:34;96738.28;;;9.45;100.00
12178;BME280;6152;48.728;9.256;2022-11-09T01:35:00;96742.69;;;9.44;100.00
12178;BME280;6152;48.728;9.256;2022-11-09T01:37:26;96741.00;;;9.43;100.00
12178;BME280;6152;48.728;9.256;2022-11-09T01:39:52;96734.13;;;9.42;100.00
12178;BME280;6152;48.728;9.256;2022-11-09T01:42:28;96736.66;;;9.44;100.00
12178;BME280;6152;48.728;9.256;2022-11-09T01:47:44;96731.53;;;9.42;100.00
12178;BME280;6152;48.728;9.256;2022-11-09T01:50:14;96722.91;;;9.42;100.00
12178;BME280;6152;48.728;9.256;2022-11-09T01:52:43;96726.47;;;9.41;100.00
12178;BME280;6152;48.728;9.256;2022-11-09T01:55:19;96721.34;;;9.39;100.00
12178;BME280;6152;48.728;9.256;2022-11-09T01:58:01;96728.31;;;9.39;100.00
12178;BME280;6152;48.728;9.256;2022-11-09T02:00:30;96714.59;;;9.37;100.00
12178;BME280;6152;48.728;9.256;2022-11-09T02:03:17;96712.72;;;9.39;100.00
12178;BME280;6152;48.728;9.256;2022-11-09T02:05:45;96714.47;;;9.38;100.00
12178;BME280;6152;48.728;9.256;2022-11-09T02:08:14;96717.81;;;9.40;100.00
12178;BME280;6152;48.728;9.256;2022-11-09T02:11:04;96722.91;;;9.42;100.00
12178;BME280;6152;48.728;9.256;2022-11-09T02:13:33;96733.03;;;9.46;100.00
12178;BME280;6152;48.728;9.256;2022-11-09T02:15:59;96727.63;;;9.49;100.00
12178;BME280;6152;48.728;9.256;2022-11-09T02:18:26;96729.31;;;9.50;100.00
12178;BME280;6152;48.728;9.256;2022-11-09T02:20:54;96719.56;;;9.54;100.00
12178;BME280;6152;48.728;9.256;2022-11-09T02:23:22;96713.06;;;9.61;100.00
12178;BME280;6152;48.728;9.256;2022-11-09T02:25:59;96715.19;;;9.69;100.00
12178;BME280;6152;48.728;9.256;2022-11-09T02:28:27;96717.56;;;9.72;100.00
12178;BME280;6152;48.728;9.256;2022-11-09T02:30:55;96717.19;;;9.78;100.00
12178;BME280;6152;48.728;9.256;2022-11-09T02:33:21;96718.66;;;9.82;100.00
12178;BME280;6152;48.728;9.256;2022-11-09T02:35:48;96720.94;;;9.86;100.00
12178;BME280;6152;48.728;9.256;2022-11-09T02:38:14;96722.31;;;9.92;100.00
12178;BME280;6152;48.728;9.256;2022-11-09T02:40:44;96719.53;;;9.95;100.00
12178;BME280;6152;48.728;9.256;2022-11-09T02:43:13;96719.13;;;10.01;100.00
12178;BME280;6152;48.728;9.256;2022-11-09T02:45:40;96729.13;;;10.07;100.00
12178;BME280;6152;48.728;9.256;2022-11-09T02:48:06;96728.84;;;10.11;100.00
12178;BME280;6152;48.728;9.256;2022-11-09T02:50:32;96724.72;;;10.22;100.00
12178;BME280;6152;48.728;9.256;2022-11-09T02:52:58;96731.22;;;10.41;100.00
12178;BME280;6152;48.728;9.256;2022-11-09T02:55:24;96731.47;;;10.51;100.00
12178;BME280;6152;48.728;9.256;2022-11-09T02:57:50;96729.81;;;10.62;100.00
12178;BME280;6152;48.728;9.256;2022-11-09T03:00:17;96740.53;;;10.71;100.00
12178;BME280;6152;48.728;9.256;2022-11-09T03:02:43;96732.09;;;10.80;100.00
12178;BME280;6152;48.728;9.256;2022-11-09T03:05:09;96737.94;;;10.83;100.00
12178;BME280;6152;48.728;9.256;2022-11-09T03:07:35;96746.38;;;10.87;100.00
12178;BME280;6152;48.728;9.256;2022-11-09T03:10:01;96755.66;;;10.91;100.00
12178;BME280;6152;48.728;9.256;2022-11-09T03:12:27;96759.00;;;10.93;100.00
12178;BME280;6152;48.728;9.256;2022-11-09T03:14:55;96759.00;;;10.93;100.00
12178;BME280;6152;48.728;9.256;2022-11-09T03:17:21;96760.03;;;11.03;100.00
12178;BME280;6152;48.728;9.256;2022-11-09T03:19:47;96757.72;;;11.11;100.00
12178;BME280;6152;48.728;9.256;2022-11-09T03:22:13;96753.25;;;11.13;100.00
12178;BME280;6152;48.728;9.256;2022-11-09T03:24:40;96766.69;;;11.20;100.00
12178;BME280;6152;48.728;9.256;2022-11-09T03:27:06;96765.00;;;11.31;100.00
12178;BME280;6152;48.728;9.256;2022-11-09T03:29:32;96766.66;;;11.45;100.00
12178;BME280;6152;48.728;9.256;2022-11-09T03:31:58;96766.88;;;11.42;100.00
12178;BME280;6152;48.728;9.256;2022-11-09T03:34:24;96766.03;;;11.41;100.00
12178;BME280;6152;48.728;9.256;2022-11-09T03:36:51;96771.22;;;11.41;100.00
12178;BME280;6152;48.728;9.256;2022-11-09T03:39:17;96773.97;;;11.40;100.00
12178;BME280;6152;48.728;9.256;2022-11-09T03:41:43;96788.97;;;11.36;100.00
12178;BME280;6152;48.728;9.256;2022-11-09T03:44:09;96788.78;;;11.27;100.00
12178;BME280;6152;48.728;9.256;2022-11-09T03:46:35;96791.50;;;11.12;100.00
12178;BME280;6152;48.728;9.256;2022-11-09T03:49:01;96791.66;;;10.97;100.00
12178;BME280;6152;48.728;9.256;2022-11-09T03:51:27;96790.84;;;10.84;100.00
12178;BME280;6152;48.728;9.256;2022-11-09T03:53:53;96779.38;;;10.74;100.00
12178;BME280;6152;48.728;9.256;2022-11-09T03:56:20;96785.19;;;10.64;100.00
12178;BME280;6152;48.728;9.256;2022-11-09T03:58:46;96779.75;;;10.55;100.00
12178;BME280;6152;48.728;9.256;2022-11-09T04:01:12;96791.81;;;10.43;100.00
12178;BME280;6152;48.728;9.256;2022-11-09T04:03:38;96785.31;;;10.36;100.00
12178;BME280;6152;48.728;9.256;2022-11-09T04:06:04;96785.94;;;10.27;100.00
12178;BME280;6152;48.728;9.256;2022-11-09T04:08:30;96786.31;;;10.21;100.00
12178;BME280;6152;48.728;9.256;2022-11-09T04:10:56;96784.03;;;10.17;100.00
12178;BME280;6152;48.728;9.256;2022-11-09T04:13:23;96786.88;;;10.12;100.00
12178;BME280;6152;48.728;9.256;2022-11-09T04:15:49;96790.72;;;10.06;100.00
12178;BME280;6152;48.728;9.256;2022-11-09T04:18:16;96802.59;;;9.96;100.00
12178;BME280;6152;48.728;9.256;2022-11-09T04:20:43;96805.69;;;9.89;100.00
12178;BME280;6152;48.728;9.256;2022-11-09T04:23:11;96807.75;;;9.84;100.00
12178;BME280;6152;48.728;9.256;2022-11-09T04:25:39;96808.84;;;9.80;100.00
12178;BME280;6152;48.728;9.256;2022-11-09T04:28:06;96812.56;;;9.76;100.00
12178;BME280;6152;48.728;9.256;2022-11-09T04:30:35;96824.31;;;9.69;100.00
12178;BME280;6152;48.728;9.256;2022-11-09T04:33:02;96821.22;;;9.62;100.00
12178;BME280;6152;48.728;9.256;2022-11-09T04:35:30;96821.41;;;9.59;100.00
12178;BME280;6152;48.728;9.256;2022-11-09T04:37:59;96812.69;;;9.46;100.00
12178;BME280;6152;48.728;9.256;2022-11-09T04:40:27;96820.41;;;9.47;100.00
12178;BME280;6152;48.728;9.256;2022-11-09T04:42:54;96823.94;;;9.46;100.00
12178;BME280;6152;48.728;9.256;2022-11-09T04:45:21;96822.25;;;9.45;100.00
12178;BME280;6152;48.728;9.256;2022-11-09T04:47:48;96820.75;;;9.41;100.00
12178;BME280;6152;48.728;9.256;2022-11-09T04:50:14;96819.84;;;9.42;100.00
12178;BME280;6152;48.728;9.256;2022-11-09T04:52:40;96810.38;;;9.41;100.00
12178;BME280;6152;48.728;9.256;2022-11-09T04:55:07;96806.84;;;9.42;100.00
12178;BME280;6152;48.728;9.256;2022-11-09T04:57:33;96804.53;;;9.38;100.00
12178;BME280;6152;48.728;9.256;2022-11-09T04:59:59;96803.91;;;9.34;100.00
12178;BME280;6152;48.728;9.256;2022-11-09T05:02:25;96798.97;;;9.30;100.00
12178;BME280;6152;48.728;9.256;2022-11-09T05:04:51;96790.53;;;9.26;100.00
12178;BME280;6152;48.728;9.256;2022-11-09T05:07:17;96787.13;;;9.26;100.00
12178;BME280;6152;48.728;9.256;2022-11-09T05:09:43;96785.34;;;9.26;100.00
12178;BME280;6152;48.728;9.256;2022-11-09T05:12:13;96781.25;;;9.22;100.00
12178;BME280;6152;48.728;9.256;2022-11-09T05:14:39;96776.16;;;9.21;100.00
12178;BME280;6152;48.728;9.256;2022-11-09T05:17:05;96776.16;;;9.21;100.00
12178;BME280;6152;48.728;9.256;2022-11-09T05:19:33;96778.66;;;9.22;100.00
12178;BME280;6152;48.728;9.256;2022-11-09T05:22:00;96785.16;;;9.29;100.00
12178;BME280;6152;48.728;9.256;2022-11-09T05:24:44;96802.88;;;9.23;100.00
12178;BME280;6152;48.728;9.256;2022-11-09T05:27:11;96799.72;;;9.18;100.00
12178;BME280;6152;48.728;9.256;2022-11-09T05:29:37;96795.34;;;9.18;100.00
12178;BME280;6152;48.728;9.256;2022-11-09T05:32:03;96795.16;;;9.21;100.00
12178;BME280;6152;48.728;9.256;2022-11-09T05:34:29;96777.19;;;9.18;100.00
12178;BME280;6152;48.728;9.256;2022-11-09T05:36:55;96779.88;;;9.17;100.00
12178;BME280;6152;48.728;9.256;2022-11-09T05:39:21;96764.50;;;9.13;100.00
12178;BME280;6152;48.728;9.256;2022-11-09T05:41:48;96774.03;;;9.13;100.00
12178;BME280;6152;48.728;9.256;2022-11-09T05:44:14;96773.22;;;9.12;100.00
12178;BME280;6152;48.728;9.256;2022-11-09T05:46:40;96764.66;;;9.10;100.00
12178;BME280;6152;48.728;9.256;2022-11-09T05:49:06;96772.56;;;9.09;100.00
12178;BME280;6152;48.728;9.256;2022-11-09T05:51:32;96772.56;;;9.09;100.00
12178;BME280;6152;48.728;9.256;2022-11-09T05:53:58;96778.47;;;9.11;100.00
12178;BME280;6152;48.728;9.256;2022-11-09T05:56:24;96764.84;;;9.07;100.00
12178;BME280;6152;48.728;9.256;2022-11-09T05:58:50;96762.56;;;9.03;100.00
12178;BME280;6152;48.728;9.256;2022-11-09T06:01:17;96761.78;;;9.01;100.00
12178;BME280;6152;48.728;9.256;2022-11-09T06:03:44;96767.91;;;9.00;100.00
12178;BME280;6152;48.728;9.256;2022-11-09T06:06:12;96762.56;;;9.03;100.00
12178;BME280;6152;48.728;9.256;2022-11-09T06:08:39;96768.91;;;8.97;100.00
12178;BME280;6152;48.728;9.256;2022-11-09T06:11:09;96770.78;;;8.95;100.00
12178;BME280;6152;48.728;9.256;2022-11-09T06:13:36;96773.47;;;8.94;100.00
12178;BME280;6152;48.728;9.256;2022-11-09T06:16:04;96777.00;;;8.93;100.00
12178;BME280;6152;48.728;9.256;2022-11-09T06:18:31;96780.41;;;8.93;100.00
12178;BME280;6152;48.728;9.256;2022-11-09T06:21:00;96790.72;;;8.95;100.00
12178;BME280;6152;48.728;9.256;2022-11-09T06:23:27;96787.38;;;8.93;100.00
12178;BME280;6152;48.728;9.256;2022-11-09T06:26:01;96792.56;;;8.93;100.00
12178;BME280;6152;48.728;9.256;2022-11-09T06:28:28;96799.41;;;8.94;100.00
12178;BME280;6152;48.728;9.256;2022-11-09T06:31:01;96802.75;;;8.96;100.00
12178;BME280;6152;48.728;9.256;2022-11-09T06:33:30;96797.56;;;8.96;100.00
12178;BME280;6152;48.728;9.256;2022-11-09T06:35:57;96802.75;;;8.96;100.00
12178;BME280;6152;48.728;9.256;2022-11-09T06:38:24;96807.97;;;8.96;100.00
12178;BME280;6152;48.728;9.256;2022-11-09T06:40:55;96810.44;;;8.97;100.00
12178;BME280;6152;48.728;9.256;2022-11-09T06:43:22;96809.41;;;9.00;100.00
12178;BME280;6152;48.728;9.256;2022-11-09T06:45:48;96819.06;;;8.98;100.00
12178;BME280;6152;48.728;9.256;2022-11-09T06:48:15;96819.81;;;9.00;100.00
12178;BME280;6152;48.728;9.256;2022-11-09T06:50:41;96819.81;;;9.00;100.00
12178;BME280;6152;48.728;9.256;2022-11-09T06:53:11;96812.97;;;8.99;100.00
12178;BME280;6152;48.728;9.256;2022-11-09T06:55:38;96826.69;;;9.01;100.00
12178;BME280;6152;48.728;9.256;2022-11-09T06:58:14;96827.25;;;9.06;100.00
12178;BME280;6152;48.728;9.256;2022-11-09T07:00:42;96840.22;;;9.06;100.00
12178;BME280;6152;48.728;9.256;2022-11-09T07:03:14;96834.09;;;9.07;100.00
12178;BME280;6152;48.728;9.256;2022-11-09T07:05:40;96835.69;;;9.09;100.00
12178;BME280;6152;48.728;9.256;2022-11-09T07:08:07;96834.66;;;9.12;100.00
12178;BME280;6152;48.728;9.256;2022-11-09T07:10:33;96837.19;;;9.13;100.00
12178;BME280;6152;48.728;9.256;2022-11-09T07:12:59;96841.34;;;9.16;100.00
12178;BME280;6152;48.728;9.256;2022-11-09T07:15:28;96847.19;;;9.20;100.00
12178;BME280;6152;48.728;9.256;2022-11-09T07:17:58;96846.00;;;9.25;100.00
12178;BME280;6152;48.728;9.256;2022-11-09T07:20:24;96851.75;;;9.30;100.00
12178;BME280;6152;48.728;9.256;2022-11-09T07:22:50;96853.31;;;9.33;100.00
12178;BME280;6152;48.728;9.256;2022-11-09T07:25:17;96862.69;;;9.35;100.00
12178;BME280;6152;48.728;9.256;2022-11-09T07:27:44;96873.66;;;9.40;100.00
12178;BME280;6152;48.728;9.256;2022-11-09T07:30:10;96876.91;;;9.44;100.00
12178;BME280;6152;48.728;9.256;2022-11-09T07:32:38;96910.03;;;9.54;100.00
12178;BME280;6152;48.728;9.256;2022-11-09T07:35:05;96920.50;;;9.67;100.00
12178;BME280;6152;48.728;9.256;2022-11-09T07:37:32;96929.03;;;9.69;100.00
12178;BME280;6152;48.728;9.256;2022-11-09T07:39:58;96928.69;;;9.75;100.00
12178;BME280;6152;48.728;9.256;2022-11-09T07:42:25;96926.44;;;9.83;100.00
12178;BME280;6152;48.728;9.256;2022-11-09T07:44:51;96931.75;;;9.96;100.00
12178;BME280;6152;48.728;9.256;2022-11-09T07:47:18;96923.75;;;9.99;100.00
12178;BME280;6152;48.728;9.256;2022-11-09T07:49:45;96919.94;;;10.04;100.00
12178;BME280;6152;48.728;9.256;2022-11-09T07:52:11;96902.13;;;10.12;100.00
12178;BME280;6152;48.728;9.256;2022-11-09T07:54:38;96899.25;;;10.17;100.00
12178;BME280;6152;48.728;9.256;2022-11-09T07:57:05;96907.59;;;10.22;100.00
12178;BME280;6152;48.728;9.256;2022-11-09T07:59:32;96901.16;;;10.28;100.00
12178;BME280;6152;48.728;9.256;2022-11-09T08:01:58;96903.69;;;10.29;100.00
12178;BME280;6152;48.728;9.256;2022-11-09T08:04:24;96906.66;;;10.37;100.00
12178;BME280;6152;48.728;9.256;2022-11-09T08:06:53;96903.09;;;10.38;100.00
12178;BME280;6152;48.728;9.256;2022-11-09T08:09:20;96907.38;;;10.39;100.00
12178;BME280;6152;48.728;9.256;2022-11-09T08:11:46;96912.94;;;10.47;100.00
12178;BME280;6152;48.728;9.256;2022-11-09T08:14:12;96917.50;;;10.44;100.00
12178;BME280;6152;48.728;9.256;2022-11-09T08:16:38;96916.66;;;10.43;100.00
12178;BME280;6152;48.728;9.256;2022-11-09T08:19:04;96921.88;;;10.43;100.00
12178;BME280;6152;48.728;9.256;2022-11-09T08:21:35;96924.56;;;10.42;100.00
12178;BME280;6152;48.728;9.256;2022-11-09T08:24:01;96924.88;;;10.37;100.00
12178;BME280;6152;48.728;9.256;2022-11-09T08:26:27;96923.84;;;10.40;100.00
12178;BME280;6152;48.728;9.256;2022-11-09T08:28:54;96930.16;;;10.36;100.00
12178;BME280;6152;48.728;9.256;2022-11-09T08:31:20;96924.09;;;10.35;100.00
12178;BME280;6152;48.728;9.256;2022-11-09T08:33:47;96910.38;;;10.33;100.00
12178;BME280;6152;48.728;9.256;2022-11-09T08:36:17;96928.28;;;10.38;100.00
12178;BME280;6152;48.728;9.256;2022-11-09T08:38:44;96921.31;;;10.38;100.00
12178;BME280;6152;48.728;9.256;2022-11-09T08:41:11;96921.88;;;10.43;100.00
12178;BME280;6152;48.728;9.256;2022-11-09T08:43:37;96916.06;;;10.52;100.00
12178;BME280;6152;48.728;9.256;2022-11-09T08:46:04;96935.03;;;10.54;100.00
12178;BME280;6152;48.728;9.256;2022-11-09T08:48:30;96930.03;;;10.51;100.00
12178;BME280;6152;48.728;9.256;2022-11-09T08:50:58;96928.41;;;10.63;100.00
12178;BME280;6152;48.728;9.256;2022-11-09T08:53:26;96927.09;;;10.70;100.00
12178;BME280;6152;48.728;9.256;2022-11-09T08:55:52;96923.34;;;10.74;100.00
12178;BME280;6152;48.728;9.256;2022-11-09T08:58:19;96919.72;;;10.77;100.00
12178;BME280;6152;48.728;9.256;2022-11-09T09:00:45;96916.41;;;10.87;100.00
12178;BME280;6152;48.728;9.256;2022-11-09T09:03:12;96916.84;;;10.94;100.00
12178;BME280;6152;48.728;9.256;2022-11-09T09:05:38;96913.84;;;11.00;100.00
12178;BME280;6152;48.728;9.256;2022-11-09T09:08:05;96921.28;;;11.06;100.00
12178;BME280;6152;48.728;9.256;2022-11-09T09:10:32;96924.59;;;11.08;100.00
12178;BME280;6152;48.728;9.256;2022-11-09T09:13:01;96906.72;;;11.16;100.00
12178;BME280;6152;48.728;9.256;2022-11-09T09:15:27;96905.88;;;11.28;100.00
12178;BME280;6152;48.728;9.256;2022-11-09T09:17:53;96913.41;;;11.33;100.00
12178;BME280;6152;48.728;9.256;2022-11-09T09:20:19;96905.59;;;11.33;100.00
12178;BME280;6152;48.728;9.256;2022-11-09T09:22:46;96910.06;;;11.31;100.00
12178;BME280;6152;48.728;9.256;2022-11-09T09:25:12;96912.22;;;11.24;100.00
12178;BME280;6152;48.728;9.256;2022-11-09T09:27:38;96925.16;;;11.13;100.00
12178;BME280;6152;48.728;9.256;2022-11-09T09:30:05;96925.72;;;11.04;100.00
12178;BME280;6152;48.728;9.256;2022-11-09T09:32:31;96926.47;;;11.06;100.00
12178;BME280;6152;48.728;9.256;2022-11-09T09:34:57;96923.94;;;10.92;100.00
12178;BME280;6152;48.728;9.256;2022-11-09T09:37:23;96928.78;;;10.84;100.00
12178;BME280;6152;48.728;9.256;2022-11-09T09:39:50;96933.78;;;10.74;100.00
12178;BME280;6152;48.728;9.256;2022-11-09T09:42:22;96932.28;;;10.70;100.00
12178;BME280;6152;48.728;9.256;2022-11-09T09:50:13;96921.38;;;10.78;100.00
12178;BME280;6152;48.728;9.256;2022-11-09T09:55:37;96916.13;;;10.92;100.00
12178;BME280;6152;48.728;9.256;2022-11-09T09:58:12;96910.84;;;11.06;100.00
12178;BME280;6152;48.728;9.256;2022-11-09T10:00:39;96920.56;;;11.17;100.00
12178;BME280;6152;48.728;9.256;2022-11-09T10:03:15;96923.97;;;11.17;100.00
12178;BME280;6152;48.728;9.256;2022-11-09T10:14:10;96932.59;;;11.44;100.00
12178;BME280;6152;48.728;9.256;2022-11-09T10:22:40;96921.06;;;11.74;100.00
12178;BME280;6152;48.728;9.256;2022-11-09T10:25:22;96921.16;;;11.85;100.00
12178;BME280;6152;48.728;9.256;2022-11-09T10:27:57;96921.03;;;12.11;100.00
12178;BME280;6152;48.728;9.256;2022-11-09T10:30:26;96908.38;;;12.18;100.00
12178;BME280;6152;48.728;9.256;2022-11-09T10:33:17;96912.72;;;12.43;100.00
12178;BME280;6152;48.728;9.256;2022-11-09T10:38:41;96891.06;;;12.77;100.00
12178;BME280;6152;48.728;9.256;2022-11-09T10:43:56;96887.63;;;13.35;100.00
12178;BME280;6152;48.728;9.256;2022-11-09T10:46:23;96893.38;;;13.51;100.00
12178;BME280;6152;48.728;9.256;2022-11-09T10:48:50;96889.47;;;13.90;100.00
12178;BME280;6152;48.728;9.256;2022-11-09T10:51:42;96882.66;;;14.21;100.00
12178;BME280;6152;48.728;9.256;2022-11-09T10:54:19;96888.16;;;14.40;100.00
12178;BME280;6152;48.728;9.256;2022-11-09T10:56:50;96884.78;;;14.60;100.00
12178;BME280;6152;48.728;9.256;2022-11-09T10:59:37;96879.78;;;14.69;100.00
12178;BME280;6152;48.728;9.256;2022-11-09T11:07:43;96877.31;;;15.40;100.00
12178;BME280;6152;48.728;9.256;2022-11-09T11:18:04;96873.94;;;14.97;100.00
12178;BME280;6152;48.728;9.256;2022-11-09T11:20:37;96870.25;;;14.68;100.00
12178;BME280;6152;48.728;9.256;2022-11-09T11:23:17;96865.84;;;14.68;100.00
12178;BME280;6152;48.728;9.256;2022-11-09T11:25:57;96864.28;;;14.65;100.00
12178;BME280;6152;48.728;9.256;2022-11-09T11:28:49;96862.88;;;14.61;100.00
12178;BME280;6152;48.728;9.256;2022-11-09T11:31:18;96852.00;;;14.66;100.00
12178;BME280;6152;48.728;9.256;2022-11-09T11:33:45;96852.44;;;14.50;100.00
12178;BME280;6152;48.728;9.256;2022-11-09T11:36:26;96858.13;;;14.55;100.00
12178;BME280;6152;48.728;9.256;2022-11-09T11:46:44;96855.38;;;14.57;100.00
12178;BME280;6152;48.728;9.256;2022-11-09T11:52:17;96860.75;;;14.55;100.00
12178;BME280;6152;48.728;9.256;2022-11-09T11:55:38;96858.63;;;14.49;100.00
12178;BME280;6152;48.728;9.256;2022-11-09T12:00:25;96861.50;;;14.46;100.00
12178;BME280;6152;48.728;9.256;2022-11-09T12:08:30;96855.53;;;14.33;100.00
12178;BME280;6152;48.728;9.256;2022-11-09T12:19:20;96836.72;;;14.50;100.00
12178;BME280;6152;48.728;9.256;2022-11-09T12:21:58;96828.47;;;14.55;100.00
12178;BME280;6152;48.728;9.256;2022-11-09T12:30:05;96823.38;;;14.53;100.00
12178;BME280;6152;48.728;9.256;2022-11-09T12:32:53;96831.75;;;14.47;100.00
12178;BME280;6152;48.728;9.256;2022-11-09T12:35:41;96833.88;;;14.42;100.00
12178;BME280;6152;48.728;9.256;2022-11-09T12:38:16;96825.19;;;14.42;100.00
12178;BME280;6152;48.728;9.256;2022-11-09T12:40:49;96815.44;;;14.44;100.00
12178;BME280;6152;48.728;9.256;2022-11-09T12:46:03;96821.38;;;14.46;100.00
12178;BME280;6152;48.728;9.256;2022-11-09T12:48:34;96813.84;;;14.52;100.00
12178;BME280;6152;48.728;9.256;2022-11-09T12:51:02;96813.59;;;14.55;100.00
12178;BME280;6152;48.728;9.256;2022-11-09T12:53:34;96826.91;;;14.63;100.00
12178;BME280;6152;48.728;9.256;2022-11-09T12:56:09;96819.66;;;14.56;100.00
12178;BME280;6152;48.728;9.256;2022-11-09T12:58:37;96819.53;;;14.69;100.00
12178;BME280;6152;48.728;9.256;2022-11-09T13:01:06;96821.16;;;14.70;100.00
12178;BME280;6152;48.728;9.256;2022-11-09T13:03:39;96815.41;;;14.76;100.00
12178;BME280;6152;48.728;9.256;2022-11-09T13:06:27;96822.34;;;14.77;100.00
12178;BME280;6152;48.728;9.256;2022-11-09T13:11:41;96818.19;;;14.74;100.00
12178;BME280;6152;48.728;9.256;2022-11-09T13:14:35;96820.22;;;14.71;100.00
12178;BME280;6152;48.728;9.256;2022-11-09T13:19:53;96827.59;;;14.65;100.00
12178;BME280;6152;48.728;9.256;2022-11-09T13:24:59;96827.28;;;14.59;100.00
12178;BME280;6152;48.728;9.256;2022-11-09T13:27:44;96821.47;;;14.55;100.00
12178;BME280;6152;48.728;9.256;2022-11-09T13:30:40;96826.94;;;14.52;100.00
12178;BME280;6152;48.728;9.256;2022-11-09T13:38:21;96848.75;;;14.42;100.00
12178;BME280;6152;48.728;9.256;2022-11-09T13:40:48;96840.44;;;14.37;100.00
12178;BME280;6152;48.728;9.256;2022-11-09T13:43:16;96844.34;;;14.31;100.00
12178;BME280;6152;48.728;9.256;2022-11-09T13:45:56;96846.97;;;14.31;100.00
12178;BME280;6152;48.728;9.256;2022-11-09T13:48:58;96844.50;;;14.18;100.00
12178;BME280;6152;48.728;9.256;2022-11-09T13:51:23;96848.19;;;14.16;100.00
12178;BME280;6152;48.728;9.256;2022-11-09T13:56:50;96860.00;;;13.99;100.00
12178;BME280;6152;48.728;9.256;2022-11-09T13:59:31;96861.19;;;13.95;100.00
12178;BME280;6152;48.728;9.256;2022-11-09T14:02:00;96861.28;;;13.94;100.00
12178;BME280;6152;48.728;9.256;2022-11-09T14:04:35;96857.38;;;13.88;100.00
12178;BME280;6152;48.728;9.256;2022-11-09T14:07:02;96860.00;;;13.88;100.00
12178;BME280;6152;48.728;9.256;2022-11-09T14:09:39;96862.94;;;13.84;100.00
12178;BME280;6152;48.728;9.256;2022-11-09T14:12:58;96867.47;;;13.82;100.00
12178;BME280;6152;48.728;9.256;2022-11-09T14:23:30;96879.69;;;13.59;100.00
12178;BME280;6152;48.728;9.256;2022-11-09T14:25:57;96875.88;;;13.52;100.00
12178;BME280;6152;48.728;9.256;2022-11-09T14:28:31;96883.97;;;13.49;100.00
12178;BME280;6152;48.728;9.256;2022-11-09T14:30:59;96874.56;;;13.46;100.00
12178;BME280;6152;48.728;9.256;2022-11-09T14:33:29;96879.91;;;13.45;100.00
12178;BME280;6152;48.728;9.256;2022-11-09T14:35:59;96887.75;;;13.45;100.00
12178;BME280;6152;48.728;9.256;2022-11-09T14:38:46;96886.94;;;13.44;100.00
12178;BME280;6152;48.728;9.256;2022-11-09T14:41:20;96896.44;;;13.45;100.00
12178;BME280;6152;48.728;9.256;2022-11-09T14:43:57;96897.16;;;13.47;100.00
12178;BME280;6152;48.728;9.256;2022-11-09T14:46:26;96897.25;;;13.46;100.00
12178;BME280;6152;48.728;9.256;2022-11-09T14:48:59;96900.72;;;13.46;100.00
12178;BME280;6152;48.728;9.256;2022-11-09T14:51:38;96904.41;;;13.44;100.00
12178;BME280;6152;48.728;9.256;2022-11-09T14:54:12;96905.91;;;13.35;100.00
12178;BME280;6152;48.728;9.256;2022-11-09T14:56:40;96916.00;;;13.29;100.00
12178;BME280;6152;48.728;9.256;2022-11-09T14:59:11;96916.56;;;13.21;100.00
12178;BME280;6152;48.728;9.256;2022-11-09T15:01:38;96912.84;;;13.12;100.00